Data for 06/25/2010

Time Sea-Level Adjusted Pressure Absolute Pressure Temperature Relative Humidity Dew Point   
(mb) (inHg) (mb) (inHg) (C) (F) (%) (C) (F)
00:05 1018 30.06 847 25.01 14.3 57.7 71 9.2 48.6
00:10 1018 30.06 847 25.01 13.7 56.7 75 9.3 48.8
00:15 1018 30.06 847 25.01 13.5 56.3 73 8.8 47.8
00:20 1018 30.06 847 25.01 13.7 56.6 73 8.9 48.1
00:25 1018 30.06 847 25.01 13.5 56.3 74 8.9 48
00:30 1018 30.06 847 25.01 13.3 55.9 74 8.8 47.8
00:35 1018 30.06 847 25.01 13.2 55.8 73 8.6 47.4
00:40 1018 30.06 847 25.01 13.4 56.2 70 8.1 46.5
00:45 1018 30.06 847 25.01 13.5 56.3 72 8.7 47.6
00:50 1018 30.06 847 25.01 13.3 55.9 72 8.4 47.2
00:55 1018 30.06 847 25.01 13 55.4 74 8.6 47.5
01:00 1018 30.06 847 25.01 12.5 54.6 76 8.4 47.1
01:05 1018 30.06 847 25.01 12.3 54.1 75 8 46.4
01:10 1018 30.06 847 25.01 12.2 53.9 74 7.7 45.9
01:15 1018 30.06 847 25.01 12.3 54.2 74 7.9 46.2
01:20 1018 30.06 847 25.01 12.4 54.3 75 8 46.4
01:25 1018 30.06 847 25.01 12.3 54.2 75 7.9 46.3
01:30 1018 30.06 847 25.01 12.2 54 75 8 46.3
01:35 1018 30.06 847 25.01 12.2 54 74 7.8 46.1
01:40 1018 30.06 847 25.01 12.2 53.9 74 7.8 46
01:45 1018 30.06 847 25.01 12.3 54.2 72 7.5 45.4
01:50 1018 30.06 847 25.01 12.4 54.4 72 7.6 45.7
01:55 1018 30.06 847 25.01 12.4 54.3 72 7.6 45.7
02:00 1018 30.06 847 25.01 12.3 54.1 73 7.6 45.7
02:05 1018 30.06 847 25.01 12.3 54.1 72 7.5 45.5
02:10 1018 30.06 847 25.01 12.4 54.3 72 7.5 45.6
02:15 1018 30.06 847 25.01 12.7 54.9 70 7.5 45.5
02:20 1018 30.06 847 25.01 12.9 55.3 69 7.4 45.4
02:25 1018 30.06 847 25.01 13.1 55.6 69 7.5 45.5
02:30 1018 30.06 847 25.01 13 55.3 70 7.6 45.7
02:35 1018 30.06 847 25.01 12.7 54.8 72 7.8 46.1
02:40 1018 30.06 847 25.01 12.3 54.2 73 7.7 45.9
02:45 1018 30.06 847 25.01 12.3 54.2 74 7.8 46
02:50 1018 30.06 847 25.01 12.3 54.1 73 7.6 45.7
02:55 1018 30.06 847 25.01 12.4 54.3 72 7.6 45.7
03:00 1018 30.06 847 25.01 12.6 54.6 71 7.6 45.7
03:05 1018 30.06 847 25.01 12.6 54.7 72 7.8 46
03:10 1018 30.06 847 25.01 12.5 54.5 72 7.6 45.6
03:15 1018 30.06 847 25.01 12.6 54.7 69 7.2 44.9
03:20 1018 30.06 847 25.01 12.9 55.2 68 7.1 44.8
03:25 1018 30.06 847 25.01 13.1 55.5 67 7.2 44.9
03:30 1018 30.06 847 25.01 13 55.4 68 7.2 45
03:35 1018 30.06 847 25.01 13 55.5 68 7.2 45
03:40 1018 30.06 847 25.01 13 55.3 69 7.5 45.5
03:45 1018 30.06 847 25.01 12.8 55.1 69 7.2 45
03:50 1017 30.03 847 25.01 12.9 55.2 70 7.5 45.6
03:55 1017 30.03 847 25.01 12.7 54.9 70 7.5 45.5
04:00 1017 30.03 847 25.01 12.7 54.8 70 7.4 45.2
04:05 1017 30.03 847 25.01 12.8 55 69 7.4 45.3
04:10 1018 30.06 847 25.01 12.8 55 71 7.6 45.6
04:15 1018 30.06 847 25.01 12.6 54.7 71 7.4 45.4
04:20 1018 30.06 847 25.01 12.7 54.8 70 7.5 45.5
04:25 1018 30.06 847 25.01 12.6 54.7 71 7.5 45.4
04:30 1018 30.06 847 25.01 12.6 54.7 70 7.3 45.2
04:35 1018 30.06 847 25.01 12.6 54.6 71 7.5 45.6
04:40 1018 30.06 847 25.01 12.5 54.4 73 7.8 46.1
04:45 1018 30.06 847 25.01 12.4 54.4 72 7.5 45.5
04:50 1018 30.06 847 25.01 12.7 54.9 70 7.4 45.4
04:55 1018 30.06 847 25.01 12.9 55.2 71 7.7 45.9
05:00 1018 30.06 847 25.01 12.8 55 70 7.6 45.6
05:05 1017 30.03 847 25.01 12.7 54.8 73 8.1 46.5
05:10 1018 30.06 847 25.01 12.5 54.5 73 7.8 46
05:15 1018 30.06 847 25.01 12.6 54.8 71 7.6 45.7
05:20 1018 30.06 847 25.01 12.7 54.8 72 7.8 46
05:25 1018 30.06 847 25.01 12.7 54.8 72 7.8 46
05:30 1017 30.03 847 25.01 12.7 54.8 71 7.7 45.8
05:35 1018 30.06 847 25.01 12.6 54.6 73 7.9 46.2
05:40 1018 30.06 847 25.01 12.5 54.5 73 7.8 46.1
05:45 1018 30.06 847 25.01 12.6 54.7 72 7.7 45.9
05:50 1018 30.06 847 25.01 12.9 55.1 70 7.6 45.7
05:55 1018 30.06 847 25.01 13 55.4 69 7.6 45.6
06:00 1018 30.06 847 25.01 13.2 55.8 69 7.7 45.8
06:05 1018 30.06 847 25.01 13.4 56.1 67 7.5 45.5
06:10 1018 30.06 847 25.01 13.6 56.4 67 7.7 45.8
06:15 1018 30.06 847 25.01 13.6 56.6 68 7.8 46.1
06:20 1018 30.06 847 25.01 13.6 56.5 69 8.2 46.7
06:25 1018 30.06 847 25.01 13.5 56.3 69 7.9 46.3
06:30 1018 30.06 847 25.01 13.6 56.4 67 7.7 45.8
06:35 1018 30.06 847 25.01 13.6 56.4 69 8 46.4
06:40 1018 30.06 847 25.01 13.4 56 69 7.9 46.3
06:45 1018 30.06 847 25.01 13.6 56.5 66 7.3 45.2
06:50 1018 30.06 847 25.01 14.1 57.4 66 8 46.4
06:55 1018 30.06 847 25.01 13.9 57.1 69 8.4 47.2
07:00 1018 30.06 847 25.01 13.7 56.7 70 8.5 47.2
07:05 1018 30.06 847 25.01 13.6 56.5 70 8.3 47
07:10 1018 30.06 847 25.01 13.7 56.6 69 8.1 46.6
07:15 1018 30.06 847 25.01 13.8 56.8 69 8.3 46.9
07:20 1018 30.06 847 25.01 13.8 56.8 70 8.5 47.2
07:25 1018 30.06 848 25.04 13.8 56.8 69 8.3 46.9
07:30 1018 30.06 847 25.01 14 57.1 68 8.1 46.6
07:35 1018 30.06 847 25.01 14.3 57.7 67 8.2 46.8
07:40 1018 30.06 847 25.01 14.5 58 66 8.3 47
07:45 1018 30.06 847 25.01 14.5 58 67 8.5 47.2
07:50 1018 30.06 847 25.01 14.5 58.1 68 8.7 47.7
07:55 1018 30.06 847 25.01 14.7 58.5 66 8.6 47.4
08:00 1018 30.06 847 25.01 14.8 58.6 67 8.8 47.8
08:05 1018 30.06 847 25.01 14.9 58.8 67 9 48.1
08:10 1018 30.06 847 25.01 15 58.9 70 9.5 49.1
08:15 1018 30.06 847 25.01 15.1 59.2 68 9.4 48.9
08:20 1018 30.06 847 25.01 15.4 59.7 65 9 48.2
08:25 1018 30.06 847 25.01 15.6 60.1 64 9 48.2
08:30 1018 30.06 847 25.01 16 60.9 64 9.3 48.7
08:35 1018 30.06 847 25.01 16.5 61.7 61 9.1 48.3
08:40 1018 30.06 847 25.01 17 62.6 60 9.3 48.7
08:45 1018 30.06 847 25.01 17.6 63.6 57 9.1 48.3
08:50 1018 30.06 847 25.01 18 64.3 56 9.2 48.6
08:55 1018 30.06 847 25.01 17.9 64.3 56 9.2 48.5
09:00 1018 30.06 847 25.01 18 64.3 57 9.4 48.9
09:05 1018 30.06 847 25.01 18.6 65.5 54 9.3 48.7
09:10 1018 30.06 847 25.01 19.8 67.6 51 9.5 49.1
09:15 1018 30.06 847 25.01 20 67.9 50 9.3 48.7
09:20 1018 30.06 847 25.01 19.9 67.7 50 9.3 48.7
09:25 1018 30.06 847 25.01 19.3 66.7 51 9 48.2
09:30 1018 30.06 847 25.01 19 66.2 50 8.4 47.1
09:35 1018 30.06 847 25.01 19.6 67.2 49 8.7 47.7
09:40 1018 30.06 847 25.01 19.5 67.1 54 10 50.1
09:45 1018 30.06 847 25.01 19.5 67.2 54 10 50
09:50 1018 30.06 847 25.01 19.7 67.5 55 10.5 50.9
09:55 1018 30.06 847 25.01 19.6 67.3 57 10.9 51.7
10:00 1018 30.06 847 25.01 19.3 66.8 58 10.9 51.6
10:05 1018 30.06 847 25.01 19.9 67.9 55 10.7 51.3
10:10 1018 30.06 847 25.01 19.9 67.9 55 10.8 51.5
10:15 1018 30.06 847 25.01 20 67.9 54 10.4 50.7
10:20 1018 30.06 847 25.01 20.3 68.5 53 10.4 50.7
10:25 1018 30.06 847 25.01 20.1 68.2 51 9.8 49.6
10:30 1018 30.06 847 25.01 20.4 68.8 51 9.9 49.9
10:35 1018 30.06 847 25.01 20.8 69.5 47 9.4 48.9
10:40 1018 30.06 847 25.01 19.6 67.4 53 10 50
10:45 1018 30.06 847 25.01 19.7 67.5 50 9.3 48.7
10:50 1018 30.06 847 25.01 19.7 67.4 51 9.4 48.9
10:55 1018 30.06 847 25.01 20.2 68.4 48 9.1 48.4
11:00 1018 30.06 847 25.01 20.5 68.8 44 8 46.5
11:05 1018 30.06 847 25.01 21.4 70.4 44 8.6 47.5
11:10 1018 30.06 847 25.01 22.1 71.7 42 8.8 47.9
11:15 1018 30.06 847 25.01 21.7 71.1 45 9.4 49
11:20 1018 30.06 847 25.01 21.2 70.1 48 9.8 49.7
11:25 1018 30.06 847 25.01 20.5 68.9 50 9.8 49.7
11:30 1018 30.06 847 25.01 21.2 70.2 47 9.7 49.4
11:35 1018 30.06 847 25.01 21.1 69.9 48 9.7 49.5
11:40 1018 30.06 847 25.01 20.6 69 49 9.6 49.3
11:45 1018 30.06 847 25.01 21.1 70 45 9 48.2
11:50 1018 30.06 847 25.01 21.6 70.8 45 9.2 48.6
11:55 1018 30.06 847 25.01 22.1 71.7 44 9.4 49
12:00 1018 30.06 847 25.01 22.8 73.1 42 9.5 49.1
12:05 1018 30.06 847 25.01 22.5 72.6 45 10.1 50.2
12:10 1018 30.06 847 25.01 22.5 72.5 42 9.3 48.7
12:15 1018 30.06 847 25.01 22.5 72.4 42 9.2 48.6
12:20 1018 30.06 847 25.01 21.6 70.9 42 8.4 47.1
12:25 1018 30.06 847 25.01 22 71.6 44 9.3 48.8
12:30 1018 30.06 847 25.01 22 71.5 44 9.3 48.8
12:35 1018 30.06 847 25.01 22.6 72.7 42 9 48.3
12:40 1018 30.06 847 25.01 22.6 72.8 43 9.6 49.3
12:45 1018 30.06 847 25.01 22.3 72.2 43 9.3 48.7
12:50 1018 30.06 847 25.01 22.4 72.2 42 9.1 48.5
12:55 1018 30.06 847 25.01 22.1 71.8 41 8.3 47
13:00 1018 30.06 847 25.01 22.5 72.4 45 10 50.1
13:05 1018 30.06 847 25.01 22.5 72.5 44 9.9 49.7
13:10 1018 30.06 847 25.01 22.8 73.1 40 8.7 47.7
13:15 1017 30.03 847 25.01 23.6 74.5 38 8.6 47.4
13:20 1017 30.03 847 25.01 23.4 74.1 41 9.6 49.3
13:25 1017 30.03 847 25.01 23.1 73.6 37 7.6 45.7
13:30 1017 30.03 847 25.01 23.4 74.2 38 8.4 47.2
13:35 1017 30.03 846 24.98 23 73.3 34 6.5 43.7
13:40 1017 30.03 846 24.98 22.8 73 36 7.1 44.8
13:45 1017 30.03 846 24.98 23 73.3 35 6.9 44.5
13:50 1017 30.03 846 24.98 22.6 72.7 35 6.5 43.7
13:55 1017 30.03 846 24.98 24 75.2 35 7.7 45.8
14:00 1017 30.03 846 24.98 24 75.2 33 7.1 44.8
14:05 1017 30.03 846 24.98 23.9 75 34 7.2 45
14:10 1017 30.03 846 24.98 24.1 75.3 35 8 46.4
14:15 1017 30.03 846 24.98 23.6 74.5 34 7.1 44.8
14:20 1017 30.03 846 24.98 23.6 74.5 34 7.2 44.9
14:25 1017 30.03 846 24.98 24 75.2 33 7 44.7
14:30 1017 30.03 846 24.98 24 75.3 33 7 44.6
14:35 1017 30.03 846 24.98 23.1 73.7 34 6.6 43.8
14:40 1017 30.03 846 24.98 23.8 74.8 32 6.5 43.7
14:45 1017 30.03 846 24.98 24 75.1 34 7.2 45
14:50 1017 30.03 846 24.98 23.9 75 33 6.9 44.4
14:55 1017 30.03 846 24.98 24.4 75.8 32 6.9 44.5
15:00 1017 30.03 846 24.98 23.6 74.5 34 7.2 44.9
15:05 1016 30 846 24.98 23.5 74.3 34 7 44.6
15:10 1016 30 846 24.98 23.8 74.8 33 6.9 44.5
15:15 1016 30 846 24.98 23.2 73.7 34 6.7 44
15:20 1016 30 846 24.98 24 75.2 34 7.4 45.3
15:25 1016 30 846 24.98 23.4 74.1 35 7.4 45.3
15:30 1016 30 846 24.98 22.8 73 35 6.7 44
15:35 1017 30.03 846 24.98 22.7 72.9 38 7.7 45.9
15:40 1017 30.03 846 24.98 22.2 72 39 7.9 46.3
15:45 1016 30 846 24.98 21.8 71.3 42 8.5 47.3
15:50 1016 30 845 24.95 22.2 71.9 38 7.3 45.1
15:55 1016 30 845 24.95 22.6 72.7 38 7.8 46
16:00 1016 30 845 24.95 22.8 73 38 7.8 46
16:05 1016 30 845 24.95 22.8 73 40 8.5 47.3
16:10 1016 30 845 24.95 23 73.4 35 7.1 44.8
16:15 1016 30 845 24.95 24.3 75.7 34 7.8 46.1
16:20 1016 30 845 24.95 23.9 75 34 7.3 45.1
16:25 1016 30 845 24.95 23.4 74.1 36 7.6 45.7
16:30 1016 30 845 24.95 23.2 73.8 43 10.1 50.1
16:35 1016 30 845 24.95 22.8 73 46 10.7 51.3
16:40 1016 30 845 24.95 22.4 72.2 44 9.6 49.2
16:45 1016 30 845 24.95 22.3 72.1 45 9.8 49.6
16:50 1016 30 845 24.95 22.1 71.9 49 11.1 52
16:55 1016 30 845 24.95 21.8 71.2 48 10.5 50.8
17:00 1016 30 845 24.95 21.7 71 54 12.2 54
17:05 1016 30 845 24.95 20.7 69.2 60 12.7 54.8
17:10 1016 30 845 24.95 19.5 67 62 12.1 53.7
17:15 1016 30 845 24.95 19.7 67.4 57 11 51.8
17:20 1015 29.97 845 24.95 19.9 67.7 58 11.5 52.8
17:25 1015 29.97 845 24.95 20.3 68.6 58 12 53.6
17:30 1015 29.97 845 24.95 21.1 70 53 11.4 52.5
17:35 1015 29.97 844 24.92 21 69.9 51 10.7 51.2
17:40 1015 29.97 844 24.92 20.7 69.3 52 10.7 51.3
17:45 1015 29.97 844 24.92 20.5 68.8 57 11.8 53.3
17:50 1015 29.97 844 24.92 20.3 68.5 58 11.8 53.2
17:55 1015 29.97 844 24.92 20.2 68.3 59 12 53.6
18:00 1015 29.97 844 24.92 19.9 67.9 61 12.3 54.1
18:05 1015 29.97 844 24.92 19.1 66.3 66 12.7 54.8
18:10 1015 29.97 844 24.92 18.8 65.8 70 13.4 56
18:15 1016 30 845 24.95 18.3 65 68 12.4 54.3
18:20 1016 30 845 24.95 17.5 63.4 72 12.4 54.4
18:25 1017 30.03 846 24.98 16.4 61.5 76 12.2 53.9
18:30 1017 30.03 846 24.98 15.6 60.2 80 12.2 53.9
18:35 1017 30.03 846 24.98 15.3 59.5 81 12 53.6
18:40 1017 30.03 846 24.98 15.1 59.2 84 12.5 54.5
18:45 1017 30.03 847 25.01 15.1 59.1 84 12.4 54.4
18:50 1018 30.06 847 25.01 15.1 59.1 83 12.2 53.9
18:55 1017 30.03 847 25.01 15.1 59.2 86 12.8 55.1
19:00 1017 30.03 846 24.98 14.8 58.7 89 13 55.4
19:05 1017 30.03 846 24.98 14.5 58.2 90 12.9 55.2
19:10 1017 30.03 846 24.98 14.4 57.9 90 12.9 55.1
19:15 1017 30.03 846 24.98 14.2 57.6 91 12.7 54.9
19:20 1017 30.03 846 24.98 14.3 57.8 89 12.5 54.5
19:25 1017 30.03 846 24.98 14.3 57.7 88 12.3 54.2
19:30 1017 30.03 846 24.98 14.3 57.8 87 12.3 54.1
19:35 1017 30.03 846 24.98 14.5 58.1 87 12.4 54.3
19:40 1017 30.03 846 24.98 14.6 58.3 85 12.2 53.9
19:45 1017 30.03 846 24.98 14.6 58.3 82 11.6 52.8
19:50 1017 30.03 846 24.98 14.8 58.6 82 11.8 53.3
19:55 1017 30.03 846 24.98 15 59 83 12.2 53.9
20:00 1017 30.03 846 24.98 15.1 59.2 82 12.1 53.8
20:05 1017 30.03 846 24.98 15.2 59.3 82 12.2 54
20:10 1017 30.03 846 24.98 15.1 59.3 84 12.5 54.5
20:15 1017 30.03 846 24.98 15.1 59.2 85 12.7 54.9
20:20 1017 30.03 847 25.01 15.2 59.3 83 12.3 54.1
20:25 1017 30.03 847 25.01 15.4 59.8 81 12.2 54
20:30 1018 30.06 847 25.01 15.7 60.2 81 12.5 54.5
20:35 1017 30.03 847 25.01 15.9 60.5 77 11.8 53.2
20:40 1018 30.06 847 25.01 15.9 60.6 79 12.2 54
20:45 1018 30.06 847 25.01 15.9 60.7 79 12.3 54.2
20:50 1018 30.06 847 25.01 15.8 60.5 81 12.6 54.7
20:55 1018 30.06 847 25.01 15.6 60.1 80 12.2 53.9
21:00 1018 30.06 847 25.01 15.6 60.1 81 12.4 54.4
21:05 1018 30.06 847 25.01 15.6 60 80 12.1 53.8
21:10 1018 30.06 847 25.01 15.5 59.9 80 12 53.6
21:15 1018 30.06 847 25.01 15.4 59.6 80 11.9 53.5
21:20 1018 30.06 848 25.04 15.2 59.3 82 12.1 53.8
21:25 1019 30.09 848 25.04 15 59 85 12.4 54.4
21:30 1019 30.09 848 25.04 14.7 58.5 86 12.4 54.3
21:35 1019 30.09 848 25.04 14.5 58.1 87 12.5 54.4
21:40 1019 30.09 848 25.04 14.4 57.8 87 12.3 54.2
21:45 1019 30.09 848 25.04 14.3 57.7 86 12 53.7
21:50 1019 30.09 848 25.04 14.2 57.5 87 12.1 53.9
21:55 1019 30.09 848 25.04 14.1 57.4 87 11.9 53.5
22:00 1019 30.09 848 25.04 14.1 57.3 86 11.8 53.2
22:05 1019 30.09 848 25.04 14 57.1 86 11.6 52.9
22:10 1019 30.09 848 25.04 13.9 56.9 86 11.5 52.7
22:15 1019 30.09 848 25.04 13.7 56.7 85 11.3 52.4
22:20 1019 30.09 848 25.04 13.7 56.6 85 11.2 52.1
22:25 1019 30.09 848 25.04 13.5 56.3 86 11.2 52.1
22:30 1019 30.09 848 25.04 13.4 56.2 85 11 51.8
22:35 1019 30.09 848 25.04 13.3 56 85 10.9 51.7
22:40 1019 30.09 848 25.04 13.2 55.8 85 10.8 51.5
22:45 1019 30.09 848 25.04 13.2 55.8 84 10.6 51.1
22:50 1018 30.06 848 25.04 13.2 55.8 85 10.7 51.2
22:55 1018 30.06 848 25.04 13.1 55.6 85 10.7 51.3
23:00 1018 30.06 848 25.04 13.1 55.6 85 10.7 51.3
23:05 1018 30.06 848 25.04 13.2 55.7 86 10.8 51.5
23:10 1018 30.06 847 25.01 13.1 55.6 87 11 51.7
23:15 1018 30.06 847 25.01 12.9 55.1 88 10.8 51.5
23:20 1018 30.06 847 25.01 12.9 55.2 88 10.9 51.6
23:25 1018 30.06 847 25.01 12.8 55 88 10.9 51.7
23:30 1018 30.06 847 25.01 12.7 54.8 88 10.7 51.3
23:35 1018 30.06 847 25.01 12.7 54.9 87 10.6 51.1
23:40 1018 30.06 847 25.01 12.8 55 86 10.6 51
23:45 1018 30.06 847 25.01 12.9 55.2 87 10.7 51.3
23:50 1018 30.06 847 25.01 12.9 55.1 86 10.5 51
23:55 1018 30.06 847 25.01 12.8 55.1 86 10.5 51
24:00 1018 30.06 847 25.01 12.7 54.8 86 10.4 50.8